Decoded Metar for KSPA (SPARTANBURG VOR in SC, USA) (IATA:SPA) | Meteo·Mobile Aviation Weather
aviador You're here:

KSPA Decoded Metar

SPARTANBURG VOR in SC, USA
Report Time2019-07-20 01:15:00
UTC Time2019-07-20 01:18:50
Flight Rules vfr VFR
Wind230° at 06 kt
W.Decomp.*RWY 23: 6.0 kt HW 0.5 kt RCW
Visibility9999 m
Phenomena:N/A
Clouds:N/A
Expected CloudBase > 2,800 ft AGL from Temp-Dew spread
CeilingNone
Temp28°C (ISA +15)
Dew Point21°C (66% RH)
Heat Index30.2°C
QNH1016 hPa
Density Alt2,946 ft
Elevation994 ft
Report Wrong Elevation
Raw Report
METAR KSPA 200115Z AUTO 23006KT 10SM CLR 28/21 A3001 RMK AO2 LTG DSNT
SE AND S=

Extra information for KSPA:More info

Metar Taf Metar & Taf Last 4 Metars F.Rules Stats Wind Profile Meteogram Temp Stats Airport Information Weather charts Add Link Nearby VenuesMetar ALERT Operation Metar Decoded Social comments

AIRNAV info for KSPA